createdAt,value
2019-01-06T00:01:01.952Z,6.80
2019-01-06T00:04:09.256Z,6.80
2019-01-06T00:07:16.359Z,6.90
2019-01-06T00:10:19.410Z,6.80
2019-01-06T00:13:19.156Z,6.70
2019-01-06T00:16:18.520Z,6.80
2019-01-06T00:19:18.275Z,6.80
2019-01-06T00:22:13.531Z,6.80
2019-01-06T00:25:10.258Z,6.70
2019-01-06T00:28:04.791Z,6.70
2019-01-06T00:31:05.040Z,6.70
2019-01-06T00:34:05.311Z,6.70
2019-01-06T00:37:03.819Z,6.70
2019-01-06T00:40:04.360Z,6.70
2019-01-06T00:43:04.536Z,6.80
2019-01-06T00:46:06.091Z,6.70
2019-01-06T00:49:05.641Z,6.70
2019-01-06T00:52:00.746Z,6.70
2019-01-06T00:55:01.082Z,6.70
2019-01-06T00:58:01.765Z,6.70
2019-01-06T01:00:53.946Z,6.80
2019-01-06T01:03:53.769Z,6.70
2019-01-06T01:06:53.400Z,6.80
2019-01-06T01:09:53.014Z,6.80
2019-01-06T01:12:49.644Z,6.80
2019-01-06T01:15:51.931Z,6.80
2019-01-06T01:18:45.804Z,6.80
2019-01-06T01:21:45.556Z,6.90
2019-01-06T01:24:39.472Z,6.90
2019-01-06T01:27:39.341Z,6.80
2019-01-06T01:30:35.332Z,6.80
2019-01-06T01:33:35.281Z,6.70
2019-01-06T01:36:35.089Z,6.70
2019-01-06T01:39:30.040Z,6.70
2019-01-06T01:42:27.263Z,6.70
2019-01-06T01:45:27.492Z,6.80
2019-01-06T01:48:27.198Z,6.80
2019-01-06T01:51:33.294Z,6.80
2019-01-06T01:54:33.439Z,6.70
2019-01-06T01:57:34.526Z,6.80
2019-01-06T02:00:34.531Z,6.80
2019-01-06T02:03:33.937Z,6.70
2019-01-06T02:06:34.258Z,6.70
2019-01-06T02:09:33.831Z,6.70
2019-01-06T02:12:33.561Z,6.70
2019-01-06T02:15:31.672Z,6.70
2019-01-06T02:18:31.959Z,6.80
2019-01-06T02:21:35.196Z,6.70
2019-01-06T02:24:36.005Z,6.70
2019-01-06T02:27:36.231Z,6.70
2019-01-06T02:30:36.050Z,6.70
2019-01-06T02:33:25.695Z,6.70
2019-01-06T02:36:26.592Z,6.70
2019-01-06T02:39:18.624Z,6.70
2019-01-06T02:42:18.499Z,6.70
2019-01-06T02:45:18.966Z,6.70
2019-01-06T02:48:19.086Z,6.70
2019-01-06T02:51:19.119Z,6.70
2019-01-06T02:54:19.193Z,6.70
2019-01-06T02:57:19.490Z,6.70
2019-01-06T03:00:19.065Z,6.70
2019-01-06T03:03:25.725Z,6.60
2019-01-06T03:06:23.626Z,6.60
2019-01-06T03:09:23.069Z,6.60
2019-01-06T03:12:23.622Z,6.60
2019-01-06T03:15:23.313Z,6.60
2019-01-06T03:18:17.983Z,6.60
2019-01-06T03:21:18.396Z,6.60
2019-01-06T03:24:18.284Z,6.60
2019-01-06T03:27:18.586Z,6.60
2019-01-06T03:30:18.542Z,6.50
2019-01-06T03:33:13.303Z,6.50
2019-01-06T03:36:13.010Z,6.50
2019-01-06T03:39:15.237Z,6.50
2019-01-06T03:42:15.078Z,6.40
2019-01-06T03:45:09.721Z,6.50
2019-01-06T03:48:09.633Z,6.40
2019-01-06T03:51:09.395Z,6.40
2019-01-06T03:54:09.313Z,6.40
2019-01-06T03:57:08.954Z,6.40
2019-01-06T03:59:57.096Z,6.40
2019-01-06T04:03:04.450Z,6.40
2019-01-06T04:06:11.826Z,6.40
2019-01-06T04:09:11.574Z,6.40
2019-01-06T04:12:11.284Z,6.30
2019-01-06T04:15:10.678Z,6.30
2019-01-06T04:18:09.408Z,6.40
2019-01-06T04:21:09.205Z,6.40
2019-01-06T04:24:08.827Z,6.40
2019-01-06T04:27:09.525Z,6.40
2019-01-06T04:30:12.346Z,6.40
2019-01-06T04:33:08.018Z,6.40
2019-01-06T04:36:07.284Z,6.30
2019-01-06T04:39:07.374Z,6.30
2019-01-06T04:42:09.538Z,6.30
2019-01-06T04:45:09.209Z,6.30
2019-01-06T04:48:08.886Z,6.40
2019-01-06T04:51:08.806Z,6.30
2019-01-06T04:54:09.070Z,6.40
2019-01-06T04:57:08.519Z,6.40
2019-01-06T05:00:06.672Z,6.30
2019-01-06T05:03:06.040Z,6.30
2019-01-06T05:05:59.764Z,6.30
2019-01-06T05:08:59.508Z,6.30
2019-01-06T05:11:47.199Z,6.30
2019-01-06T05:14:49.887Z,6.30
2019-01-06T05:17:44.284Z,6.30
2019-01-06T05:20:43.906Z,6.30
2019-01-06T05:23:44.201Z,6.30
2019-01-06T05:26:44.147Z,6.30
2019-01-06T05:29:31.998Z,6.30
2019-01-06T05:32:39.076Z,6.30
2019-01-06T05:35:46.120Z,6.30
2019-01-06T05:38:53.280Z,6.30
2019-01-06T05:42:00.354Z,6.30
2019-01-06T05:45:07.438Z,6.30
2019-01-06T05:48:14.503Z,6.20
2019-01-06T05:51:21.591Z,6.20
2019-01-06T05:54:28.862Z,6.30
2019-01-06T05:57:35.935Z,6.30
2019-01-06T06:00:43.002Z,6.20
2019-01-06T06:03:50.051Z,6.20
2019-01-06T06:06:57.425Z,6.20
2019-01-06T06:09:51.325Z,6.30
2019-01-06T06:12:45.197Z,6.30
2019-01-06T06:15:44.954Z,6.20
2019-01-06T06:18:47.471Z,6.20
2019-01-06T06:21:46.851Z,6.20
2019-01-06T06:24:49.075Z,6.30
2019-01-06T06:27:48.943Z,6.30
2019-01-06T06:30:40.592Z,6.30
2019-01-06T06:33:40.353Z,6.30
2019-01-06T06:36:33.481Z,6.30
2019-01-06T06:39:33.792Z,6.30
2019-01-06T06:42:33.345Z,6.30
2019-01-06T06:45:36.218Z,6.30
2019-01-06T06:48:39.048Z,6.30
2019-01-06T06:51:31.447Z,6.30
2019-01-06T06:54:24.636Z,6.20
2019-01-06T06:57:23.964Z,6.20
2019-01-06T07:00:29.885Z,6.30
2019-01-06T07:03:29.841Z,6.30
2019-01-06T07:06:29.699Z,6.20
2019-01-06T07:09:27.575Z,6.20
2019-01-06T07:12:30.816Z,6.20
2019-01-06T07:15:31.177Z,6.20
2019-01-06T07:18:29.525Z,6.20
2019-01-06T07:21:24.791Z,6.20
2019-01-06T07:24:25.155Z,6.20
2019-01-06T07:27:24.982Z,6.20
2019-01-06T07:30:27.903Z,6.20
2019-01-06T07:33:33.929Z,6.20
2019-01-06T07:36:33.507Z,6.20
2019-01-06T07:39:33.212Z,6.20
2019-01-06T07:42:30.949Z,6.20
2019-01-06T07:45:30.931Z,6.20
2019-01-06T07:48:30.899Z,6.20
2019-01-06T07:51:23.508Z,6.30
2019-01-06T07:54:16.799Z,6.30
2019-01-06T07:57:17.178Z,6.30
2019-01-06T08:00:16.660Z,6.30
2019-01-06T08:03:16.749Z,6.30
2019-01-06T08:06:16.390Z,6.30
2019-01-06T08:09:18.857Z,6.30
2019-01-06T08:12:13.304Z,6.40
2019-01-06T08:15:03.772Z,6.40
2019-01-06T08:18:03.334Z,6.40
2019-01-06T08:21:03.867Z,6.40
2019-01-06T08:24:04.170Z,6.40
2019-01-06T08:26:54.593Z,6.40
2019-01-06T08:29:54.415Z,6.40
2019-01-06T08:32:54.531Z,6.50
2019-01-06T08:35:53.940Z,6.50
2019-01-06T08:38:53.423Z,6.50
2019-01-06T08:41:52.826Z,6.50
2019-01-06T08:44:58.158Z,6.50
2019-01-06T08:47:46.001Z,6.60
2019-01-06T08:50:53.085Z,6.60
2019-01-06T08:54:00.171Z,6.60
2019-01-06T08:57:07.235Z,6.60
2019-01-06T09:00:14.317Z,6.60
2019-01-06T09:03:21.384Z,6.60
2019-01-06T09:06:25.353Z,6.70
2019-01-06T09:09:26.502Z,6.70
2019-01-06T09:12:27.119Z,6.70
2019-01-06T09:15:25.087Z,6.70
2019-01-06T09:18:24.889Z,6.70
2019-01-06T09:21:24.874Z,6.70
2019-01-06T09:24:24.512Z,6.80
2019-01-06T09:27:24.480Z,6.80
2019-01-06T09:30:24.009Z,6.90
2019-01-06T09:33:23.451Z,6.90
2019-01-06T09:36:22.991Z,7.00
2019-01-06T09:39:22.369Z,7.10
2019-01-06T09:42:21.860Z,7.10
2019-01-06T09:45:21.298Z,7.10
2019-01-06T09:48:21.010Z,7.10
2019-01-06T09:51:20.938Z,7.10
2019-01-06T09:54:21.108Z,7.30
2019-01-06T09:57:20.627Z,7.40
2019-01-06T10:00:20.900Z,7.50
2019-01-06T10:03:20.307Z,7.50
2019-01-06T10:06:21.006Z,7.50
2019-01-06T10:09:20.563Z,7.50
2019-01-06T10:12:20.020Z,7.50
2019-01-06T10:15:20.331Z,7.50
2019-01-06T10:18:16.823Z,7.50
2019-01-06T10:21:17.356Z,7.50
2019-01-06T10:24:17.513Z,7.60
2019-01-06T10:27:17.133Z,7.70
2019-01-06T10:30:23.106Z,7.70
2019-01-06T10:33:23.351Z,7.70
2019-01-06T10:36:23.039Z,7.70
2019-01-06T10:39:22.924Z,7.70
2019-01-06T10:42:15.188Z,7.70
2019-01-06T10:45:06.671Z,7.80
2019-01-06T10:48:05.041Z,7.80
2019-01-06T10:51:04.590Z,7.80
2019-01-06T10:54:04.366Z,8.00
2019-01-06T10:57:03.932Z,8.00
2019-01-06T10:59:59.651Z,8.00
2019-01-06T11:02:59.922Z,8.00
2019-01-06T11:06:02.214Z,8.10
2019-01-06T11:09:02.445Z,8.10
2019-01-06T11:12:02.764Z,8.10
2019-01-06T11:15:01.497Z,8.00
2019-01-06T11:18:01.451Z,8.10
2019-01-06T11:21:07.036Z,8.20
2019-01-06T11:24:06.990Z,8.30
2019-01-06T11:27:13.255Z,8.20
2019-01-06T11:30:13.540Z,8.20
2019-01-06T11:33:13.784Z,8.20
2019-01-06T11:36:16.758Z,8.20
2019-01-06T11:39:16.768Z,8.20
2019-01-06T11:42:16.216Z,8.20
2019-01-06T11:45:10.306Z,8.20
2019-01-06T11:48:10.284Z,8.20
2019-01-06T11:51:10.041Z,8.10
2019-01-06T11:54:09.407Z,8.10
2019-01-06T11:57:09.203Z,8.10
2019-01-06T11:59:59.473Z,8.00
2019-01-06T12:02:59.479Z,8.00
2019-01-06T12:05:57.837Z,8.10
2019-01-06T12:08:57.717Z,8.10
2019-01-06T12:11:57.773Z,8.20
2019-01-06T12:14:58.054Z,8.30
2019-01-06T12:17:57.988Z,8.20
2019-01-06T12:21:04.291Z,8.00
2019-01-06T12:24:04.415Z,8.00
2019-01-06T12:27:07.639Z,8.00
2019-01-06T12:30:07.664Z,7.90
2019-01-06T12:33:07.443Z,7.90
2019-01-06T12:36:07.212Z,7.80
2019-01-06T12:39:06.824Z,7.90
2019-01-06T12:42:06.849Z,7.90
2019-01-06T12:45:00.085Z,7.90
2019-01-06T12:48:00.410Z,7.80
2019-01-06T12:50:51.422Z,7.80
2019-01-06T12:53:50.780Z,7.70
2019-01-06T12:56:56.148Z,7.80
2019-01-06T13:00:01.637Z,7.70
2019-01-06T13:02:58.646Z,7.70
2019-01-06T13:05:58.418Z,7.80
2019-01-06T13:08:58.461Z,7.70
2019-01-06T13:11:57.821Z,7.60
2019-01-06T13:14:58.087Z,7.60
2019-01-06T13:17:58.336Z,7.60
2019-01-06T13:20:57.764Z,7.50
2019-01-06T13:24:00.320Z,7.50
2019-01-06T13:26:59.762Z,7.50
2019-01-06T13:29:59.363Z,7.50
2019-01-06T13:33:02.882Z,7.50
2019-01-06T13:36:03.241Z,7.50
2019-01-06T13:39:02.764Z,7.50
2019-01-06T13:42:02.259Z,7.50
2019-01-06T13:45:02.565Z,7.50
2019-01-06T13:48:02.671Z,7.50
2019-01-06T13:51:02.741Z,7.40
2019-01-06T13:54:02.342Z,7.50
2019-01-06T13:57:01.979Z,7.50
2019-01-06T14:00:02.348Z,7.50
2019-01-06T14:03:05.819Z,7.30
2019-01-06T14:08:45.094Z,7.20
2019-01-06T14:11:43.322Z,7.10
2019-01-06T14:14:46.052Z,7.10
2019-01-06T14:17:45.748Z,7.00
2019-01-06T14:20:46.065Z,7.00
2019-01-06T14:23:46.610Z,7.00
2019-01-06T14:26:46.561Z,6.90
2019-01-06T14:29:46.571Z,6.90
2019-01-06T14:32:46.227Z,6.80
2019-01-06T14:35:46.795Z,6.80
2019-01-06T14:38:31.419Z,6.80
2019-01-06T14:41:31.789Z,6.80
2019-01-06T14:44:37.703Z,6.80
2019-01-06T14:47:29.870Z,6.70
2019-01-06T14:50:29.771Z,6.70
2019-01-06T14:53:29.775Z,6.70
2019-01-06T14:56:29.673Z,6.70
2019-01-06T14:59:29.350Z,6.60
2019-01-06T15:02:29.595Z,6.70
2019-01-06T15:08:31.179Z,6.60
2019-01-06T15:11:30.777Z,6.50
2019-01-06T15:14:30.799Z,6.50
2019-01-06T15:17:26.531Z,6.50
2019-01-06T15:20:26.835Z,6.50
2019-01-06T15:23:26.256Z,6.50
2019-01-06T15:26:26.358Z,6.50
2019-01-06T15:29:24.764Z,6.50
2019-01-06T15:32:24.983Z,6.40
2019-01-06T15:35:24.719Z,6.40
2019-01-06T15:38:24.979Z,6.40
2019-01-06T15:41:21.267Z,6.40
2019-01-06T15:44:21.271Z,6.40
2019-01-06T15:47:20.883Z,6.40
2019-01-06T15:50:20.624Z,6.40
2019-01-06T15:53:20.281Z,6.40
2019-01-06T15:56:20.134Z,6.40
2019-01-06T15:59:20.080Z,6.40
2019-01-06T16:02:20.220Z,6.50
2019-01-06T16:05:19.701Z,6.40
2019-01-06T16:08:19.211Z,6.40
2019-01-06T16:11:19.463Z,6.30
2019-01-06T16:14:19.737Z,6.30
2019-01-06T16:17:22.300Z,6.40
2019-01-06T16:20:22.024Z,6.40
2019-01-06T16:23:15.927Z,6.30
2019-01-06T16:26:16.142Z,6.30
2019-01-06T16:29:15.802Z,6.30
2019-01-06T16:32:15.192Z,6.30
2019-01-06T16:35:14.687Z,6.30
2019-01-06T16:38:16.450Z,6.30
2019-01-06T16:41:10.235Z,6.30
2019-01-06T16:44:00.164Z,6.30
2019-01-06T16:46:59.556Z,6.30
2019-01-06T16:50:02.741Z,6.20
2019-01-06T16:53:02.331Z,6.30
2019-01-06T16:56:02.790Z,6.30
2019-01-06T16:59:05.902Z,6.20
2019-01-06T17:02:05.671Z,6.30
2019-01-06T17:05:05.039Z,6.20
2019-01-06T17:08:04.516Z,6.30
2019-01-06T17:11:00.192Z,6.20
2019-01-06T17:14:00.384Z,6.20
2019-01-06T17:16:50.372Z,6.20
2019-01-06T17:19:31.388Z,6.30
2019-01-06T17:22:38.592Z,6.20
2019-01-06T17:25:45.657Z,6.20
2019-01-06T17:28:52.753Z,6.20
2019-01-06T17:31:59.968Z,6.20
2019-01-06T17:35:07.000Z,6.20
2019-01-06T17:38:14.173Z,6.20
2019-01-06T17:41:21.288Z,6.30
2019-01-06T17:44:28.748Z,6.20
2019-01-06T17:47:36.087Z,6.30
2019-01-06T17:50:43.179Z,6.30
2019-01-06T17:53:50.260Z,6.30
2019-01-06T17:56:57.587Z,6.30
2019-01-06T18:00:04.661Z,6.30
2019-01-06T18:03:11.756Z,6.30
2019-01-06T18:06:19.446Z,6.30
2019-01-06T18:09:27.164Z,6.30
2019-01-06T18:15:32.304Z,6.30
2019-01-06T18:18:32.892Z,6.20
2019-01-06T18:21:32.849Z,6.30
2019-01-06T18:24:33.226Z,6.30
2019-01-06T18:27:26.562Z,6.30
2019-01-06T18:30:25.959Z,6.30
2019-01-06T18:33:19.425Z,6.20
2019-01-06T18:36:19.439Z,6.20
2019-01-06T18:39:18.941Z,6.30
2019-01-06T18:42:18.413Z,6.20
2019-01-06T18:45:16.136Z,6.20
2019-01-06T18:48:15.561Z,6.30
2019-01-06T18:51:19.248Z,6.30
2019-01-06T18:54:22.035Z,6.20
2019-01-06T18:57:24.702Z,6.20
2019-01-06T19:00:24.113Z,6.20
2019-01-06T19:03:23.646Z,6.20
2019-01-06T19:06:20.213Z,6.20
2019-01-06T19:09:19.834Z,6.20
2019-01-06T19:12:13.419Z,6.20
2019-01-06T19:15:03.645Z,6.10
2019-01-06T19:18:02.502Z,6.10
2019-01-06T19:21:02.448Z,6.10
2019-01-06T19:24:01.906Z,6.10
2019-01-06T19:27:01.647Z,6.10
2019-01-06T19:30:01.169Z,6.10
2019-01-06T19:33:01.263Z,6.10
2019-01-06T19:36:01.094Z,6.10
2019-01-06T19:38:56.034Z,6.10
2019-01-06T19:41:59.162Z,6.10
2019-01-06T19:44:59.009Z,6.10
2019-01-06T19:47:58.856Z,6.10
2019-01-06T19:50:58.714Z,6.10
2019-01-06T19:54:01.323Z,6.10
2019-01-06T19:57:00.697Z,6.10
2019-01-06T20:00:00.590Z,6.10
2019-01-06T20:03:00.524Z,6.10
2019-01-06T20:06:00.922Z,6.10
2019-01-06T20:09:00.438Z,6.10
2019-01-06T20:12:00.144Z,6.10
2019-01-06T20:15:00.480Z,6.10
2019-01-06T20:18:00.000Z,6.00
2019-01-06T20:20:59.512Z,6.00
2019-01-06T20:23:59.010Z,6.10
2019-01-06T20:26:58.448Z,6.00
2019-01-06T20:29:52.612Z,6.00
2019-01-06T20:32:52.888Z,5.90
2019-01-06T20:35:53.285Z,5.90
2019-01-06T20:38:52.912Z,5.80
2019-01-06T20:41:58.709Z,5.80
2019-01-06T20:44:53.596Z,5.80
2019-01-06T20:47:53.282Z,5.80
2019-01-06T20:50:53.434Z,5.70
2019-01-06T20:53:53.854Z,5.70
2019-01-06T20:56:53.562Z,5.80
2019-01-06T20:59:59.488Z,5.80
2019-01-06T21:02:47.618Z,5.70
2019-01-06T21:05:54.699Z,5.70
2019-01-06T21:09:01.867Z,5.70
2019-01-06T21:12:02.123Z,5.70
2019-01-06T21:15:10.708Z,5.60
2019-01-06T21:18:16.519Z,5.60
2019-01-06T21:21:09.909Z,5.60
2019-01-06T21:24:04.278Z,5.60
2019-01-06T21:27:04.510Z,5.60
2019-01-06T21:29:56.905Z,5.60
2019-01-06T21:32:56.814Z,5.60
2019-01-06T21:36:00.019Z,5.60
2019-01-06T21:38:59.566Z,5.60
2019-01-06T21:41:59.126Z,5.50
2019-01-06T21:44:59.580Z,5.50
2019-01-06T21:47:59.155Z,5.50
2019-01-06T21:50:58.859Z,5.50
2019-01-06T21:54:03.857Z,5.50
2019-01-06T21:57:00.070Z,5.60
2019-01-06T22:00:03.057Z,5.60
2019-01-06T22:03:00.398Z,5.50
2019-01-06T22:06:00.439Z,5.50
2019-01-06T22:09:00.467Z,5.50
2019-01-06T22:11:59.968Z,5.50
2019-01-06T22:15:05.504Z,5.50
2019-01-06T22:18:05.066Z,5.60
2019-01-06T22:21:05.359Z,5.60
2019-01-06T22:24:05.265Z,5.60
2019-01-06T22:27:05.749Z,5.60
2019-01-06T22:30:05.296Z,5.60
2019-01-06T22:33:02.079Z,5.60
2019-01-06T22:36:02.985Z,5.60
2019-01-06T22:39:03.158Z,5.60
2019-01-06T22:42:02.713Z,5.60
2019-01-06T22:45:02.155Z,5.60
2019-01-06T22:48:07.688Z,5.70
2019-01-06T22:51:08.025Z,5.70
2019-01-06T22:54:10.769Z,5.60
2019-01-06T22:57:10.217Z,5.70
2019-01-06T23:00:10.429Z,5.70
2019-01-06T23:03:15.907Z,5.60
2019-01-06T23:06:16.620Z,5.60
2019-01-06T23:09:16.562Z,5.60
2019-01-06T23:12:16.008Z,5.60
2019-01-06T23:15:14.361Z,5.60
2019-01-06T23:18:14.474Z,5.60
2019-01-06T23:21:12.214Z,5.60
2019-01-06T23:24:15.494Z,5.60
2019-01-06T23:33:28.821Z,5.60
2019-01-06T23:36:28.911Z,5.60
2019-01-06T23:39:29.156Z,5.50
2019-01-06T23:42:28.805Z,5.50
2019-01-06T23:45:28.559Z,5.50
2019-01-06T23:48:22.016Z,5.50
2019-01-06T23:51:21.456Z,5.40
2019-01-06T23:54:23.800Z,5.40
2019-01-06T23:57:23.843Z,5.40
